createdAt,value
2019-04-20T00:01:40.943Z,92721.89
2019-04-20T00:04:17.021Z,92721.19
2019-04-20T00:06:47.798Z,92731.09
2019-04-20T00:09:18.729Z,92735.52
2019-04-20T00:11:53.483Z,92733.80
2019-04-20T00:14:19.311Z,92729.45
2019-04-20T00:16:44.599Z,92721.44
2019-04-20T00:19:15.311Z,92722.23
2019-04-20T00:22:10.109Z,92718.32
2019-04-20T00:24:45.430Z,92713.40
2019-04-20T00:27:37.040Z,92710.38
2019-04-20T00:30:00.149Z,92714.64
2019-04-20T00:32:29.587Z,92715.17
2019-04-20T00:34:49.056Z,92719.99
2019-04-20T00:37:19.286Z,92722.86
2019-04-20T00:39:48.873Z,92720.05
2019-04-20T00:42:19.817Z,92714.36
2019-04-20T00:45:00.115Z,92703.16
2019-04-20T00:47:34.815Z,92701.59
2019-04-20T00:50:02.565Z,92706.71
2019-04-20T00:52:33.191Z,92701.98
2019-04-20T00:54:53.924Z,92704.70
2019-04-20T00:57:34.599Z,92703.55
2019-04-20T01:00:12.576Z,92709.88
2019-04-20T01:02:37.150Z,92705.67
2019-04-20T01:05:11.016Z,92710.48
2019-04-20T01:07:46.394Z,92705.52
2019-04-20T01:10:13.164Z,92696.95
2019-04-20T01:12:44.419Z,92694.53
2019-04-20T01:15:25.078Z,92691.14
2019-04-20T01:17:45.256Z,92691.00
2019-04-20T01:20:14.601Z,92684.88
2019-04-20T01:22:53.708Z,92690.13
2019-04-20T01:25:23.095Z,92683.83
2019-04-20T01:28:06.646Z,92678.23
2019-04-20T01:30:25.173Z,92683.11
2019-04-20T01:33:00.197Z,92679.67
2019-04-20T01:35:38.251Z,92679.54
2019-04-20T01:38:08.562Z,92682.36
2019-04-20T01:40:21.119Z,92677.63
2019-04-20T01:42:51.218Z,92672.80
2019-04-20T01:45:27.417Z,92671.95
2019-04-20T01:47:55.849Z,92671.61
2019-04-20T01:50:27.657Z,92667.48
2019-04-20T01:53:08.637Z,92666.48
2019-04-20T01:55:44.114Z,92662.91
2019-04-20T01:58:27.436Z,92663.86
2019-04-20T02:00:55.603Z,92661.81
2019-04-20T02:03:40.328Z,92661.98
2019-04-20T02:06:12.714Z,92662.45
2019-04-20T02:08:37.940Z,92661.17
2019-04-20T02:11:08.112Z,92660.75
2019-04-20T02:13:45.646Z,92659.80
2019-04-20T02:16:15.865Z,92657.69
2019-04-20T02:18:51.645Z,92645.69
2019-04-20T02:21:30.073Z,92650.55
2019-04-20T02:23:49.682Z,92643.35
2019-04-20T02:26:14.008Z,92649.05
2019-04-20T02:29:05.737Z,92646.37
2019-04-20T02:32:01.480Z,92645.98
2019-04-20T02:34:39.778Z,92649.51
2019-04-20T02:47:14.721Z,92646.02
2019-04-20T02:54:47.226Z,92653.37
2019-04-20T03:00:03.257Z,92650.45
2019-04-20T03:02:04.122Z,92646.59
2019-04-20T03:04:25.719Z,92653.05
2019-04-20T03:07:05.451Z,92653.79
2019-04-20T03:09:40.323Z,92651.94
2019-04-20T03:12:17.021Z,92655.42
2019-04-20T03:14:35.165Z,92653.31
2019-04-20T03:17:17.217Z,92656.55
2019-04-20T03:19:38.681Z,92651.22
2019-04-20T03:22:13.483Z,92644.95
2019-04-20T03:24:50.039Z,92657.86
2019-04-20T03:27:24.755Z,92659.17
2019-04-20T03:30:39.674Z,92661.34
2019-04-20T03:35:23.937Z,92654.35
2019-04-20T03:37:50.984Z,92658.70
2019-04-20T03:40:12.881Z,92655.76
2019-04-20T03:42:30.905Z,92651.23
2019-04-20T03:45:06.143Z,92652.27
2019-04-20T03:47:43.778Z,92656.19
2019-04-20T03:50:24.435Z,92652.78
2019-04-20T03:53:13.053Z,92649.17
2019-04-20T03:55:56.794Z,92654.59
2019-04-20T03:58:36.030Z,92647.31
2019-04-20T04:01:35.866Z,92648.05
2019-04-20T04:04:21.437Z,92651.25
2019-04-20T04:06:39.049Z,92647.98
2019-04-20T04:09:13.626Z,92650.12
2019-04-20T04:11:48.589Z,92654.77
2019-04-20T04:14:03.422Z,92653.20
2019-04-20T04:16:37.443Z,92655.30
2019-04-20T04:19:12.808Z,92658.70
2019-04-20T04:21:49.679Z,92660.59
2019-04-20T04:24:17.250Z,92666.92
2019-04-20T04:26:51.576Z,92670.06
2019-04-20T04:29:29.879Z,92666.63
2019-04-20T04:32:05.502Z,92658.61
2019-04-20T04:34:30.807Z,92668.78
2019-04-20T04:37:01.986Z,92671.74
2019-04-20T04:39:33.941Z,92669.59
2019-04-20T04:42:15.215Z,92665.83
2019-04-20T04:44:26.306Z,92671.22
2019-04-20T04:46:52.408Z,92670.43
2019-04-20T04:49:20.769Z,92667.84
2019-04-20T04:51:54.456Z,92664.84
2019-04-20T04:54:26.880Z,92657.56
2019-04-20T04:56:46.740Z,92657.07
2019-04-20T04:59:17.148Z,92669.81
2019-04-20T05:01:51.437Z,92662.81
2019-04-20T05:04:43.105Z,92665.73
2019-04-20T05:07:05.122Z,92673.77
2019-04-20T05:09:23.828Z,92678.27
2019-04-20T05:11:59.729Z,92672.31
2019-04-20T05:14:37.469Z,92664.09
2019-04-20T05:17:11.449Z,92664.30
2019-04-20T05:19:47.615Z,92670.80
2019-04-20T05:22:24.738Z,92671.16
2019-04-20T05:24:56.712Z,92671.88
2019-04-20T05:27:59.374Z,92669.63
2019-04-20T05:30:07.900Z,92669.53
2019-04-20T05:32:46.924Z,92673.83
2019-04-20T05:35:40.807Z,92673.83
2019-04-20T05:38:06.352Z,92670.09
2019-04-20T05:40:35.549Z,92672.94
2019-04-20T05:43:13.153Z,92674.65
2019-04-20T05:45:38.858Z,92680.81
2019-04-20T05:48:13.058Z,92680.01
2019-04-20T05:50:43.754Z,92675.39
2019-04-20T05:53:22.163Z,92683.03
2019-04-20T05:55:47.255Z,92681.41
2019-04-20T05:58:24.559Z,92681.68
2019-04-20T06:00:56.857Z,92683.13
2019-04-20T06:03:23.056Z,92688.41
2019-04-20T06:06:00.847Z,92688.94
2019-04-20T06:08:32.047Z,92692.45
2019-04-20T06:10:56.499Z,92697.19
2019-04-20T06:13:32.688Z,92696.88
2019-04-20T06:16:18.684Z,92695.99
2019-04-20T06:19:18.850Z,92700.89
2019-04-20T06:21:43.951Z,92706.61
2019-04-20T06:24:30.258Z,92703.75
2019-04-20T06:27:08.276Z,92697.19
2019-04-20T06:29:23.691Z,92701.80
2019-04-20T06:31:57.476Z,92708.17
2019-04-20T06:34:34.387Z,92707.44
2019-04-20T06:36:56.936Z,92703.69
2019-04-20T06:44:45.817Z,92711.73
2019-04-20T06:49:36.695Z,92713.20
2019-04-20T06:52:42.253Z,92718.32
2019-04-20T06:55:28.901Z,92720.29
2019-04-20T07:00:15.501Z,92723.78
2019-04-20T07:05:22.460Z,92725.70
2019-04-20T07:07:54.899Z,92724.08
2019-04-20T07:10:39.496Z,92726.88
2019-04-20T07:12:49.739Z,92729.19
2019-04-20T07:15:33.638Z,92733.05
2019-04-20T07:20:56.723Z,92733.60
2019-04-20T07:25:58.542Z,92722.19
2019-04-20T07:28:29.187Z,92724.20
2019-04-20T07:30:53.949Z,92726.30
2019-04-20T07:33:28.514Z,92722.78
2019-04-20T07:35:50.958Z,92726.17
2019-04-20T07:40:57.637Z,92724.05
2019-04-20T07:43:28.348Z,92724.69
2019-04-20T07:46:04.197Z,92726.62
2019-04-20T07:48:24.814Z,92717.73
2019-04-20T07:50:53.332Z,92724.03
2019-04-20T07:53:25.715Z,92718.40
2019-04-20T07:56:05.021Z,92719.80
2019-04-20T07:58:25.186Z,92721.79
2019-04-20T08:01:15.182Z,92727.08
2019-04-20T08:03:50.409Z,92725.00
2019-04-20T08:06:40.673Z,92726.02
2019-04-20T08:09:16.030Z,92728.04
2019-04-20T08:11:55.456Z,92726.70
2019-04-20T08:14:35.707Z,92724.94
2019-04-20T08:17:14.106Z,92733.44
2019-04-20T08:19:27.314Z,92730.52
2019-04-20T08:21:58.465Z,92729.32
2019-04-20T08:24:27.897Z,92723.75
2019-04-20T08:26:48.600Z,92722.93
2019-04-20T08:29:29.094Z,92713.78
2019-04-20T08:32:24.079Z,92714.23
2019-04-20T08:34:55.957Z,92716.95
2019-04-20T08:37:22.256Z,92714.30
2019-04-20T08:40:01.511Z,92719.27
2019-04-20T08:42:28.621Z,92714.55
2019-04-20T08:47:37.933Z,92723.64
2019-04-20T08:50:16.787Z,92718.91
2019-04-20T08:53:03.573Z,92714.48
2019-04-20T08:55:09.280Z,92719.47
2019-04-20T08:57:24.794Z,92717.18
2019-04-20T08:59:54.478Z,92722.39
2019-04-20T09:02:23.986Z,92725.29
2019-04-20T09:05:01.035Z,92724.84
2019-04-20T09:07:28.825Z,92728.80
2019-04-20T09:10:16.653Z,92731.05
2019-04-20T09:12:39.293Z,92734.75
2019-04-20T09:14:57.503Z,92732.19
2019-04-20T09:17:49.426Z,92722.11
2019-04-20T09:20:29.109Z,92723.68
2019-04-20T09:23:13.196Z,92728.35
2019-04-20T09:26:01.419Z,92734.34
2019-04-20T09:28:18.738Z,92744.09
2019-04-20T09:30:50.459Z,92739.81
2019-04-20T09:33:58.758Z,92744.08
2019-04-20T09:36:30.707Z,92733.81
2019-04-20T09:39:12.803Z,92734.91
2019-04-20T09:42:04.801Z,92727.95
2019-04-20T09:44:24.569Z,92723.38
2019-04-20T09:46:56.315Z,92741.05
2019-04-20T09:49:35.326Z,92727.45
2019-04-20T09:52:08.086Z,92732.16
2019-04-20T09:54:41.616Z,92721.89
2019-04-20T09:57:16.101Z,92733.65
2019-04-20T09:59:44.690Z,92730.25
2019-04-20T10:02:06.667Z,92727.88
2019-04-20T10:04:27.472Z,92730.58
2019-04-20T10:07:02.308Z,92726.19
2019-04-20T10:09:32.692Z,92719.01
2019-04-20T10:11:59.685Z,92721.73
2019-04-20T10:14:30.970Z,92720.71
2019-04-20T10:17:02.006Z,92726.42
2019-04-20T10:19:34.690Z,92730.37
2019-04-20T10:22:02.545Z,92728.33
2019-04-20T10:24:32.775Z,92740.72
2019-04-20T10:27:03.022Z,92735.47
2019-04-20T10:29:33.593Z,92730.73
2019-04-20T10:32:08.839Z,92723.48
2019-04-20T10:34:34.739Z,92727.77
2019-04-20T10:37:17.604Z,92729.13
2019-04-20T10:39:47.033Z,92724.97
2019-04-20T10:42:16.358Z,92727.95
2019-04-20T10:44:45.619Z,92735.93
2019-04-20T10:47:15.009Z,92742.08
2019-04-20T10:49:45.021Z,92730.25
2019-04-20T10:52:15.760Z,92727.27
2019-04-20T10:54:50.378Z,92734.84
2019-04-20T10:57:23.730Z,92732.70
2019-04-20T10:59:55.937Z,92729.45
2019-04-20T11:02:25.969Z,92727.95
2019-04-20T11:04:58.841Z,92743.23
2019-04-20T11:07:36.611Z,92733.98
2019-04-20T11:10:17.334Z,92727.14
2019-04-20T11:12:42.161Z,92736.12
2019-04-20T11:15:12.524Z,92745.81
2019-04-20T11:17:41.949Z,92738.77
2019-04-20T11:20:11.187Z,92737.47
2019-04-20T11:22:40.627Z,92740.55
2019-04-20T11:25:10.310Z,92742.81
2019-04-20T11:27:40.512Z,92734.89
2019-04-20T11:30:11.755Z,92760.99
2019-04-20T11:32:42.183Z,92753.73
2019-04-20T11:35:21.095Z,92746.72
2019-04-20T11:37:42.905Z,92753.19
2019-04-20T11:40:12.927Z,92757.55
2019-04-20T11:42:43.705Z,92761.81
2019-04-20T11:45:13.196Z,92748.72
2019-04-20T11:47:43.289Z,92742.47
2019-04-20T11:50:13.712Z,92753.70
2019-04-20T11:52:47.515Z,92753.08
2019-04-20T11:55:14.158Z,92758.22
2019-04-20T11:57:43.415Z,92746.74
2019-04-20T12:00:17.167Z,92755.52
2019-04-20T12:03:13.683Z,92756.25
2019-04-20T12:05:41.520Z,92761.56
2019-04-20T12:08:09.214Z,92759.87
2019-04-20T12:10:39.221Z,92764.54
2019-04-20T12:13:10.194Z,92780.16
2019-04-20T12:15:41.063Z,92777.92
2019-04-20T12:18:11.627Z,92766.34
2019-04-20T12:20:41.244Z,92760.58
2019-04-20T12:23:10.659Z,92756.79
2019-04-20T12:25:43.206Z,92761.12
2019-04-20T12:28:13.661Z,92770.16
2019-04-20T12:30:43.899Z,92767.11
2019-04-20T12:33:13.718Z,92763.83
2019-04-20T12:35:44.420Z,92761.70
2019-04-20T12:38:14.895Z,92759.96
2019-04-20T12:40:44.374Z,92770.75
2019-04-20T12:43:15.035Z,92760.86
2019-04-20T12:45:44.596Z,92766.89
2019-04-20T12:48:13.850Z,92760.20
2019-04-20T12:50:43.767Z,92762.44
2019-04-20T12:53:13.089Z,92755.38
2019-04-20T12:55:42.350Z,92767.62
2019-04-20T12:58:12.577Z,92773.38
2019-04-20T13:00:43.783Z,92760.65
2019-04-20T13:03:13.729Z,92774.51
2019-04-20T13:05:43.679Z,92769.23
2019-04-20T13:08:23.278Z,92762.96
2019-04-20T13:10:48.720Z,92764.62
2019-04-20T13:13:28.695Z,92767.48
2019-04-20T13:16:10.567Z,92761.36
2019-04-20T13:18:47.505Z,92766.91
2019-04-20T13:21:16.962Z,92763.79
2019-04-20T13:23:47.073Z,92761.38
2019-04-20T13:26:17.462Z,92764.48
2019-04-20T13:28:46.924Z,92763.24
2019-04-20T13:31:16.164Z,92769.17
2019-04-20T13:33:45.445Z,92769.81
2019-04-20T13:36:14.686Z,92772.61
2019-04-20T13:38:44.154Z,92767.77
2019-04-20T13:41:13.854Z,92772.67
2019-04-20T13:43:43.926Z,92765.26
2019-04-20T13:46:13.417Z,92772.71
2019-04-20T13:48:42.799Z,92769.21
2019-04-20T13:51:12.703Z,92768.59
2019-04-20T13:53:43.312Z,92772.56
2019-04-20T13:56:14.032Z,92772.64
2019-04-20T13:59:01.797Z,92776.95
2019-04-20T14:01:48.749Z,92768.77
2019-04-20T14:04:23.619Z,92773.36
2019-04-20T14:06:54.071Z,92773.80
2019-04-20T14:09:25.662Z,92766.91
2019-04-20T14:12:10.324Z,92767.17
2019-04-20T14:14:31.106Z,92771.82
2019-04-20T14:17:01.171Z,92768.55
2019-04-20T14:19:31.409Z,92766.34
2019-04-20T14:22:02.176Z,92772.02
2019-04-20T14:24:33.043Z,92770.05
2019-04-20T14:27:03.342Z,92767.08
2019-04-20T14:29:32.885Z,92769.18
2019-04-20T14:32:03.657Z,92768.27
2019-04-20T14:34:33.141Z,92766.28
2019-04-20T14:37:02.638Z,92770.43
2019-04-20T14:39:32.357Z,92768.73
2019-04-20T14:42:02.457Z,92776.16
2019-04-20T14:44:32.141Z,92772.64
2019-04-20T14:47:01.421Z,92778.44
2019-04-20T14:49:30.693Z,92778.61
2019-04-20T14:52:01.551Z,92784.77
2019-04-20T14:54:31.822Z,92785.72
2019-04-20T14:57:01.530Z,92782.07
2019-04-20T14:59:49.676Z,92783.79
2019-04-20T15:02:21.733Z,92785.41
2019-04-20T15:04:51.080Z,92785.85
2019-04-20T15:07:20.575Z,92782.63
2019-04-20T15:09:51.080Z,92785.91
2019-04-20T15:12:21.246Z,92780.44
2019-04-20T15:14:50.705Z,92786.45
2019-04-20T15:17:29.896Z,92779.72
2019-04-20T15:20:29.806Z,92781.23
2019-04-20T15:23:01.359Z,92788.86
2019-04-20T15:25:31.664Z,92790.72
2019-04-20T15:28:02.626Z,92790.37
2019-04-20T15:30:32.192Z,92788.06
2019-04-20T15:33:03.024Z,92788.14
2019-04-20T15:35:33.425Z,92789.89
2019-04-20T15:38:03.481Z,92794.92
2019-04-20T15:40:35.239Z,92793.98
2019-04-20T15:43:12.481Z,92805.77
2019-04-20T15:45:36.977Z,92805.48
2019-04-20T15:48:07.844Z,92801.85
2019-04-20T15:50:38.192Z,92807.89
2019-04-20T15:53:08.017Z,92805.36
2019-04-20T15:55:40.247Z,92811.25
2019-04-20T15:58:08.515Z,92813.14
2019-04-20T16:00:38.338Z,92812.13
2019-04-20T16:03:27.553Z,92808.02
2019-04-20T16:06:03.284Z,92807.84
2019-04-20T16:08:34.609Z,92807.84
2019-04-20T16:11:06.836Z,92808.47
2019-04-20T16:13:40.234Z,92807.09
2019-04-20T16:16:07.858Z,92802.67
2019-04-20T16:18:38.978Z,92799.80
2019-04-20T16:21:14.209Z,92807.81
2019-04-20T16:23:43.812Z,92807.31
2019-04-20T16:26:23.866Z,92813.08
2019-04-20T16:28:53.517Z,92815.05
2019-04-20T16:31:24.393Z,92813.50
2019-04-20T16:33:56.871Z,92816.77
2019-04-20T16:36:26.074Z,92822.44
2019-04-20T16:38:55.595Z,92821.98
2019-04-20T16:41:26.300Z,92816.36
2019-04-20T16:43:55.720Z,92823.16
2019-04-20T16:46:25.831Z,92828.19
2019-04-20T16:48:56.913Z,92827.89
2019-04-20T16:51:27.017Z,92830.11
2019-04-20T16:53:56.411Z,92827.09
2019-04-20T16:56:26.522Z,92835.34
2019-04-20T16:59:01.416Z,92839.92
2019-04-20T17:01:27.565Z,92842.44
2019-04-20T17:04:06.551Z,92840.83
2019-04-20T17:06:29.818Z,92843.96
2019-04-20T17:09:01.030Z,92844.52
2019-04-20T17:11:31.807Z,92847.38
2019-04-20T17:14:03.531Z,92844.24
2019-04-20T17:16:33.507Z,92841.91
2019-04-20T17:19:03.796Z,92846.92
2019-04-20T17:21:34.178Z,92854.16
2019-04-20T17:24:04.243Z,92855.83
2019-04-20T17:26:40.971Z,92856.48
2019-04-20T17:29:15.924Z,92861.28
2019-04-20T17:32:16.062Z,92862.55
2019-04-20T17:35:00.237Z,92865.56
2019-04-20T17:37:20.880Z,92873.09
2019-04-20T17:40:10.787Z,92868.89
2019-04-20T17:42:37.474Z,92872.91
2019-04-20T17:45:02.201Z,92871.80
2019-04-20T17:47:44.834Z,92877.06
2019-04-20T17:50:12.298Z,92881.65
2019-04-20T17:52:47.513Z,92887.05
2019-04-20T17:55:01.679Z,92886.81
2019-04-20T17:57:31.209Z,92888.20
2019-04-20T18:00:12.147Z,92885.91
2019-04-20T18:03:03.334Z,92894.05
2019-04-20T18:05:42.670Z,92893.64
2019-04-20T18:08:10.328Z,92893.64
2019-04-20T18:10:35.420Z,92905.13
2019-04-20T18:12:56.744Z,92901.56
2019-04-20T18:15:40.375Z,92909.50
2019-04-20T18:18:45.021Z,92913.08
2019-04-20T18:21:17.005Z,92918.86
2019-04-20T18:23:48.566Z,92921.94
2019-04-20T18:26:40.949Z,92920.70
2019-04-20T18:29:26.795Z,92919.77
2019-04-20T18:31:39.617Z,92924.61
2019-04-20T18:34:16.487Z,92922.80
2019-04-20T18:36:47.621Z,92919.83
2019-04-20T18:39:18.056Z,92922.92
2019-04-20T18:41:52.142Z,92927.34
2019-04-20T18:44:22.327Z,92925.59
2019-04-20T18:47:13.538Z,92928.30
2019-04-20T18:49:36.022Z,92925.74
2019-04-20T18:51:51.629Z,92932.02
2019-04-20T18:54:25.766Z,92929.03
2019-04-20T18:56:53.370Z,92936.53
2019-04-20T18:59:30.415Z,92938.08
2019-04-20T19:01:54.989Z,92934.78
2019-04-20T19:04:25.813Z,92940.53
2019-04-20T19:06:56.064Z,92939.47
2019-04-20T19:09:30.309Z,92942.45
2019-04-20T19:12:02.224Z,92933.81
2019-04-20T19:14:49.331Z,92938.02
2019-04-20T19:18:06.590Z,92939.59
2019-04-20T19:20:28.914Z,92941.52
2019-04-20T19:22:59.947Z,92947.95
2019-04-20T19:25:34.543Z,92943.86
2019-04-20T19:28:03.360Z,92943.82
2019-04-20T19:30:43.687Z,92942.67
2019-04-20T19:33:19.085Z,92944.80
2019-04-20T19:35:46.606Z,92947.58
2019-04-20T19:38:12.565Z,92950.13
2019-04-20T19:40:47.817Z,92949.19
2019-04-20T19:43:17.119Z,92946.48
2019-04-20T19:46:15.483Z,92956.85
2019-04-20T19:48:25.469Z,92947.23
2019-04-20T19:51:08.387Z,92951.84
2019-04-20T19:53:31.862Z,92952.11
2019-04-20T19:55:58.368Z,92960.86
2019-04-20T19:58:26.570Z,92956.47
2019-04-20T20:00:50.803Z,92957.38
2019-04-20T20:03:17.845Z,92956.86
2019-04-20T20:05:49.913Z,92955.83
2019-04-20T20:08:23.302Z,92959.05
2019-04-20T20:10:50.597Z,92958.22
2019-04-20T20:13:20.533Z,92962.89
2019-04-20T20:15:57.655Z,92965.41
2019-04-20T20:18:37.942Z,92962.31
2019-04-20T20:21:10.036Z,92960.52
2019-04-20T20:23:25.701Z,92967.16
2019-04-20T20:25:55.136Z,92957.02
2019-04-20T20:28:33.277Z,92966.11
2019-04-20T20:31:08.038Z,92956.73
2019-04-20T20:33:46.771Z,92962.73
2019-04-20T20:36:06.623Z,92953.69
2019-04-20T20:38:37.667Z,92959.02
2019-04-20T20:41:12.736Z,92961.28
2019-04-20T20:43:51.148Z,92957.30
2019-04-20T20:46:18.582Z,92959.15
2019-04-20T20:49:00.569Z,92953.91
2019-04-20T20:51:34.456Z,92961.28
2019-04-20T20:53:50.971Z,92965.88
2019-04-20T20:56:18.500Z,92961.41
2019-04-20T20:58:52.012Z,92970.50
2019-04-20T21:01:17.573Z,92973.23
2019-04-20T21:03:46.091Z,92969.39
2019-04-20T21:06:14.683Z,92967.16
2019-04-20T21:08:48.738Z,92966.55
2019-04-20T21:11:21.649Z,92967.22
2019-04-20T21:13:48.399Z,92966.62
2019-04-20T21:16:25.042Z,92962.34
2019-04-20T21:19:05.979Z,92958.18
2019-04-20T21:21:33.630Z,92962.12
2019-04-20T21:24:03.905Z,92965.34
2019-04-20T21:26:35.051Z,92967.64
2019-04-20T21:28:59.698Z,92969.89
2019-04-20T21:31:29.670Z,92971.11
2019-04-20T21:34:06.790Z,92969.41
2019-04-20T21:36:33.476Z,92966.31
2019-04-20T21:39:08.698Z,92966.43
2019-04-20T21:41:40.828Z,92964.12
2019-04-20T21:44:18.167Z,92970.27
2019-04-20T21:46:44.271Z,92973.44
2019-04-20T21:49:23.689Z,92975.42
2019-04-20T21:51:48.967Z,92973.62
2019-04-20T21:54:12.040Z,92971.63
2019-04-20T21:56:52.482Z,92979.47
2019-04-20T21:59:20.412Z,92975.44
2019-04-20T22:01:56.322Z,92979.89
2019-04-20T22:04:14.722Z,92976.98
2019-04-20T22:06:44.646Z,92975.77
2019-04-20T22:09:15.004Z,92978.59
2019-04-20T22:11:44.948Z,92973.63
2019-04-20T22:14:18.691Z,92971.06
2019-04-20T22:16:49.553Z,92978.55
2019-04-20T22:19:33.158Z,92972.23
2019-04-20T22:22:00.586Z,92976.34
2019-04-20T22:24:35.496Z,92984.98
2019-04-20T22:26:59.975Z,92982.87
2019-04-20T22:29:21.512Z,92983.34
2019-04-20T22:31:53.605Z,92982.92
2019-04-20T22:34:25.965Z,92986.91
2019-04-20T22:36:53.876Z,92981.45
2019-04-20T22:39:36.904Z,92986.34
2019-04-20T22:42:08.583Z,92970.73
2019-04-20T22:44:34.036Z,92971.56
2019-04-20T22:47:13.963Z,92972.39
2019-04-20T22:49:48.270Z,92979.41
2019-04-20T22:52:26.734Z,92971.14
2019-04-20T22:54:55.305Z,92975.16
2019-04-20T22:57:29.767Z,92972.52
2019-04-20T22:59:52.386Z,92972.89
2019-04-20T23:02:16.281Z,92975.03
2019-04-20T23:04:46.740Z,92969.66
2019-04-20T23:07:16.840Z,92967.23
2019-04-20T23:09:52.899Z,92978.20
2019-04-20T23:12:22.589Z,92973.25
2019-04-20T23:14:49.907Z,92965.42
2019-04-20T23:17:27.217Z,92959.97
2019-04-20T23:19:56.198Z,92961.05
2019-04-20T23:22:23.106Z,92964.06
2019-04-20T23:24:53.295Z,92959.02
2019-04-20T23:27:27.277Z,92955.88
2019-04-20T23:29:55.274Z,92954.54
2019-04-20T23:32:27.994Z,92956.70
2019-04-20T23:35:03.469Z,92955.17
2019-04-20T23:37:31.218Z,92947.22
2019-04-20T23:39:58.034Z,92947.56
2019-04-20T23:42:38.533Z,92949.38
2019-04-20T23:45:38.824Z,92942.16
2019-04-20T23:48:08.540Z,92943.95
2019-04-20T23:50:56.997Z,92942.63
2019-04-20T23:53:24.702Z,92940.09
2019-04-20T23:55:41.465Z,92932.50
2019-04-20T23:58:12.611Z,92935.54
